createdAt,value
2019-03-27T00:01:10.161Z,9.18
2019-03-27T00:03:42.056Z,9.25
2019-03-27T00:06:14.669Z,9.23
2019-03-27T00:08:46.488Z,9.16
2019-03-27T00:11:18.396Z,9.28
2019-03-27T00:13:50.192Z,9.18
2019-03-27T00:16:22.403Z,9.02
2019-03-27T00:18:54.314Z,9.11
2019-03-27T00:21:26.365Z,9.20
2019-03-27T00:23:58.256Z,9.18
2019-03-27T00:26:30.045Z,9.18
2019-03-27T00:29:01.919Z,9.20
2019-03-27T00:31:34.015Z,9.13
2019-03-27T00:34:06.356Z,9.05
2019-03-27T00:36:38.228Z,9.16
2019-03-27T00:39:10.440Z,9.05
2019-03-27T00:41:42.297Z,9.07
2019-03-27T00:44:14.181Z,9.14
2019-03-27T00:46:45.979Z,9.18
2019-03-27T00:49:17.783Z,9.14
2019-03-27T00:51:50.009Z,9.15
2019-03-27T00:54:21.805Z,9.24
2019-03-27T00:56:54.170Z,9.16
2019-03-27T00:59:26.578Z,9.09
2019-03-27T01:01:58.369Z,9.17
2019-03-27T01:04:30.546Z,9.19
2019-03-27T01:07:02.451Z,9.15
2019-03-27T01:09:34.277Z,9.11
2019-03-27T01:12:06.367Z,9.31
2019-03-27T01:14:38.206Z,9.27
2019-03-27T01:17:10.029Z,9.27
2019-03-27T01:19:42.806Z,9.19
2019-03-27T01:22:14.589Z,9.34
2019-03-27T01:24:46.800Z,9.28
2019-03-27T01:27:18.934Z,9.35
2019-03-27T01:29:50.764Z,9.28
2019-03-27T01:32:22.553Z,9.24
2019-03-27T01:34:55.955Z,9.20
2019-03-27T01:37:27.754Z,9.10
2019-03-27T01:39:59.563Z,9.18
2019-03-27T01:42:31.372Z,9.20
2019-03-27T01:45:03.675Z,9.24
2019-03-27T01:47:35.483Z,9.18
2019-03-27T01:50:07.759Z,9.27
2019-03-27T01:52:39.633Z,9.24
2019-03-27T01:55:11.581Z,9.22
2019-03-27T01:57:44.065Z,9.29
2019-03-27T02:00:16.107Z,9.20
2019-03-27T02:02:47.898Z,9.10
2019-03-27T02:05:19.724Z,9.13
2019-03-27T02:07:51.595Z,9.13
2019-03-27T02:10:23.559Z,9.13
2019-03-27T02:12:56.310Z,9.27
2019-03-27T02:15:28.107Z,9.24
2019-03-27T02:17:59.972Z,9.18
2019-03-27T02:20:32.022Z,9.23
2019-03-27T02:23:03.831Z,9.14
2019-03-27T02:25:35.630Z,9.23
2019-03-27T02:28:07.829Z,9.39
2019-03-27T02:30:41.393Z,9.26
2019-03-27T02:33:13.272Z,9.39
2019-03-27T02:35:45.107Z,9.37
2019-03-27T02:38:17.087Z,9.28
2019-03-27T02:40:49.139Z,9.40
2019-03-27T02:43:21.362Z,9.33
2019-03-27T02:45:53.177Z,9.30
2019-03-27T02:48:26.895Z,9.18
2019-03-27T02:50:58.723Z,9.31
2019-03-27T02:53:30.766Z,9.11
2019-03-27T02:56:03.080Z,9.30
2019-03-27T02:58:35.188Z,9.21
2019-03-27T03:01:08.024Z,9.33
2019-03-27T03:03:39.800Z,9.26
2019-03-27T03:06:12.228Z,9.15
2019-03-27T03:08:44.065Z,9.28
2019-03-27T03:11:16.476Z,9.31
2019-03-27T03:13:48.325Z,9.36
2019-03-27T03:16:20.112Z,9.34
2019-03-27T03:18:52.040Z,9.32
2019-03-27T03:21:24.111Z,9.31
2019-03-27T03:23:56.170Z,9.35
2019-03-27T03:26:27.956Z,9.34
2019-03-27T03:28:59.737Z,9.36
2019-03-27T03:31:31.844Z,9.18
2019-03-27T03:34:04.140Z,9.13
2019-03-27T03:36:36.768Z,9.15
2019-03-27T03:39:09.620Z,9.19
2019-03-27T03:41:41.461Z,9.19
2019-03-27T03:44:13.232Z,9.23
2019-03-27T03:46:58.971Z,9.22
2019-03-27T03:49:19.231Z,9.30
2019-03-27T03:51:51.144Z,9.18
2019-03-27T03:54:23.601Z,9.08
2019-03-27T03:56:57.921Z,9.19
2019-03-27T03:59:31.606Z,9.24
2019-03-27T04:02:05.613Z,9.19
2019-03-27T04:04:39.453Z,9.23
2019-03-27T04:07:11.527Z,9.28
2019-03-27T04:09:43.884Z,9.24
2019-03-27T04:12:16.077Z,9.20
2019-03-27T04:14:47.857Z,9.10
2019-03-27T04:17:19.664Z,9.13
2019-03-27T04:19:51.672Z,9.14
2019-03-27T04:22:23.466Z,9.14
2019-03-27T04:27:26.625Z,9.36
2019-03-27T04:29:58.496Z,9.26
2019-03-27T04:32:30.615Z,9.23
2019-03-27T04:35:02.521Z,9.29
2019-03-27T04:37:34.348Z,9.31
2019-03-27T04:40:06.937Z,9.36
2019-03-27T04:42:39.067Z,9.46
2019-03-27T04:45:11.236Z,9.49
2019-03-27T04:47:43.227Z,9.54
2019-03-27T04:50:15.637Z,9.50
2019-03-27T04:52:47.773Z,9.49
2019-03-27T04:55:19.621Z,9.44
2019-03-27T04:57:51.429Z,9.47
2019-03-27T05:00:23.899Z,9.49
2019-03-27T05:02:56.584Z,9.45
2019-03-27T05:05:28.367Z,9.46
2019-03-27T05:08:00.381Z,9.58
2019-03-27T05:10:32.579Z,9.59
2019-03-27T05:13:04.559Z,9.61
2019-03-27T05:15:36.498Z,9.54
2019-03-27T05:18:08.287Z,9.53
2019-03-27T05:20:40.182Z,9.58
2019-03-27T05:23:12.281Z,9.56
2019-03-27T05:25:44.165Z,9.54
2019-03-27T05:28:15.990Z,9.58
2019-03-27T05:30:48.011Z,9.60
2019-03-27T05:33:19.860Z,9.61
2019-03-27T05:35:51.719Z,9.61
2019-03-27T05:38:23.483Z,9.58
2019-03-27T05:40:56.778Z,9.51
2019-03-27T05:43:28.614Z,9.62
2019-03-27T05:46:00.386Z,9.59
2019-03-27T05:48:32.149Z,9.48
2019-03-27T05:51:04.195Z,9.49
2019-03-27T05:53:36.053Z,9.58
2019-03-27T05:56:07.972Z,9.58
2019-03-27T05:58:39.933Z,9.61
2019-03-27T06:01:11.748Z,9.50
2019-03-27T06:03:44.853Z,9.60
2019-03-27T06:06:16.669Z,9.59
2019-03-27T06:08:48.428Z,9.62
2019-03-27T06:11:20.273Z,9.62
2019-03-27T06:13:52.126Z,9.61
2019-03-27T06:16:24.045Z,9.61
2019-03-27T06:18:56.924Z,9.66
2019-03-27T06:21:28.718Z,9.68
2019-03-27T06:24:00.578Z,9.64
2019-03-27T06:26:32.451Z,9.64
2019-03-27T06:29:04.290Z,9.67
2019-03-27T06:31:36.136Z,9.74
2019-03-27T06:34:07.979Z,9.64
2019-03-27T06:36:39.850Z,9.66
2019-03-27T06:39:11.809Z,9.58
2019-03-27T06:41:44.004Z,9.72
2019-03-27T06:44:15.804Z,9.75
2019-03-27T06:46:48.248Z,9.79
2019-03-27T06:49:20.162Z,9.76
2019-03-27T06:51:51.994Z,9.74
2019-03-27T06:54:23.739Z,9.75
2019-03-27T06:56:56.991Z,9.76
2019-03-27T06:59:28.759Z,9.82
2019-03-27T07:02:00.603Z,9.87
2019-03-27T07:04:32.436Z,9.87
2019-03-27T07:07:04.284Z,9.87
2019-03-27T07:09:36.270Z,9.86
2019-03-27T07:12:20.511Z,9.88
2019-03-27T07:14:42.166Z,9.88
2019-03-27T07:17:13.945Z,10.01
2019-03-27T07:19:45.929Z,10.01
2019-03-27T07:22:17.840Z,10.05
2019-03-27T07:24:49.639Z,10.09
2019-03-27T07:27:21.463Z,10.09
2019-03-27T07:29:53.233Z,10.10
2019-03-27T07:32:25.187Z,10.10
2019-03-27T07:34:57.115Z,10.11
2019-03-27T07:37:29.352Z,10.01
2019-03-27T07:40:02.175Z,10.02
2019-03-27T07:42:34.169Z,10.09
2019-03-27T07:45:07.438Z,10.07
2019-03-27T07:47:39.206Z,9.97
2019-03-27T07:50:11.932Z,9.97
2019-03-27T07:52:44.736Z,10.01
2019-03-27T07:55:19.699Z,10.12
2019-03-27T07:57:50.112Z,10.13
2019-03-27T08:00:24.230Z,10.07
2019-03-27T08:02:56.839Z,10.28
2019-03-27T08:05:28.785Z,10.21
2019-03-27T08:08:01.543Z,10.26
2019-03-27T08:10:33.398Z,10.32
2019-03-27T08:13:05.419Z,10.34
2019-03-27T08:15:40.461Z,10.46
2019-03-27T08:18:10.710Z,10.42
2019-03-27T08:20:42.600Z,10.51
2019-03-27T08:23:14.757Z,10.44
2019-03-27T08:25:46.589Z,10.45
2019-03-27T08:28:18.482Z,10.67
2019-03-27T08:30:50.357Z,10.78
2019-03-27T08:33:22.543Z,10.81
2019-03-27T08:35:54.334Z,10.87
2019-03-27T08:38:27.030Z,10.91
2019-03-27T08:40:58.792Z,10.92
2019-03-27T08:43:30.655Z,10.86
2019-03-27T08:46:03.112Z,10.85
2019-03-27T08:48:34.974Z,10.92
2019-03-27T08:51:07.092Z,11.23
2019-03-27T08:53:38.957Z,11.12
2019-03-27T08:56:10.896Z,11.24
2019-03-27T08:58:43.112Z,11.42
2019-03-27T09:01:15.310Z,11.44
2019-03-27T09:03:47.172Z,11.31
2019-03-27T09:06:32.767Z,11.58
2019-03-27T09:08:52.689Z,11.74
2019-03-27T09:11:24.474Z,11.84
2019-03-27T09:13:57.178Z,11.97
2019-03-27T09:16:29.143Z,12.13
2019-03-27T09:19:01.468Z,12.24
2019-03-27T09:21:33.266Z,12.00
2019-03-27T09:24:06.275Z,12.07
2019-03-27T09:26:38.349Z,12.23
2019-03-27T09:29:10.567Z,12.17
2019-03-27T09:31:45.157Z,12.29
2019-03-27T09:34:17.775Z,12.35
2019-03-27T09:36:49.867Z,12.35
2019-03-27T09:39:21.743Z,12.16
2019-03-27T09:41:53.580Z,12.42
2019-03-27T09:44:25.492Z,12.49
2019-03-27T09:46:57.512Z,12.36
2019-03-27T09:49:29.931Z,12.48
2019-03-27T09:52:01.805Z,12.50
2019-03-27T09:54:33.740Z,12.60
2019-03-27T09:57:05.503Z,12.47
2019-03-27T09:59:37.348Z,12.41
2019-03-27T10:02:09.383Z,12.38
2019-03-27T10:04:41.621Z,12.44
2019-03-27T10:07:13.495Z,12.46
2019-03-27T10:09:45.430Z,12.46
2019-03-27T10:12:17.301Z,12.40
2019-03-27T10:14:50.144Z,12.35
2019-03-27T10:17:22.195Z,12.55
2019-03-27T10:20:03.262Z,12.78
2019-03-27T10:22:27.761Z,13.04
2019-03-27T10:24:59.639Z,13.32
2019-03-27T10:27:31.544Z,13.43
2019-03-27T10:30:03.513Z,13.48
2019-03-27T10:32:35.781Z,13.50
2019-03-27T10:35:08.132Z,13.34
2019-03-27T10:37:40.009Z,13.40
2019-03-27T10:40:12.106Z,13.52
2019-03-27T10:42:43.879Z,13.66
2019-03-27T10:45:16.330Z,13.67
2019-03-27T10:47:48.179Z,13.64
2019-03-27T10:50:20.114Z,13.63
2019-03-27T10:52:52.036Z,13.54
2019-03-27T10:55:24.044Z,13.49
2019-03-27T10:57:55.921Z,13.44
2019-03-27T11:00:27.901Z,13.29
2019-03-27T11:03:00.007Z,13.24
2019-03-27T11:05:32.038Z,12.97
2019-03-27T11:08:04.342Z,13.02
2019-03-27T11:10:36.268Z,12.79
2019-03-27T11:13:08.127Z,13.02
2019-03-27T11:15:40.206Z,13.10
2019-03-27T11:18:12.124Z,13.26
2019-03-27T11:20:44.039Z,13.34
2019-03-27T11:23:15.932Z,13.21
2019-03-27T11:25:47.698Z,13.26
2019-03-27T11:28:19.555Z,13.23
2019-03-27T11:30:51.332Z,13.27
2019-03-27T11:33:23.266Z,13.33
2019-03-27T11:35:55.111Z,13.34
2019-03-27T11:38:27.676Z,13.49
2019-03-27T11:40:59.695Z,13.67
2019-03-27T11:43:31.707Z,13.61
2019-03-27T11:46:03.628Z,13.64
2019-03-27T11:48:35.612Z,13.70
2019-03-27T11:51:07.637Z,13.81
2019-03-27T11:53:39.426Z,13.95
2019-03-27T11:56:11.422Z,13.92
2019-03-27T11:58:43.455Z,13.97
2019-03-27T12:01:15.308Z,14.15
2019-03-27T12:03:47.576Z,14.02
2019-03-27T12:06:19.433Z,13.93
2019-03-27T12:08:51.389Z,13.86
2019-03-27T12:11:23.307Z,13.94
2019-03-27T12:13:55.194Z,13.91
2019-03-27T12:16:27.901Z,14.02
2019-03-27T12:18:59.773Z,14.03
2019-03-27T12:21:31.704Z,13.95
2019-03-27T12:24:03.628Z,14.09
2019-03-27T12:26:35.635Z,14.09
2019-03-27T12:29:08.093Z,14.06
2019-03-27T12:31:40.437Z,13.94
2019-03-27T12:34:12.832Z,13.93
2019-03-27T12:36:44.777Z,13.69
2019-03-27T12:39:16.961Z,13.76
2019-03-27T12:41:49.214Z,13.59
2019-03-27T12:44:21.107Z,13.53
2019-03-27T12:46:52.973Z,13.36
2019-03-27T12:49:25.131Z,13.38
2019-03-27T12:51:57.951Z,13.30
2019-03-27T12:54:30.134Z,13.41
2019-03-27T12:57:02.081Z,13.46
2019-03-27T12:59:34.028Z,13.38
2019-03-27T13:02:06.598Z,13.32
2019-03-27T13:04:38.676Z,13.24
2019-03-27T13:07:10.603Z,13.31
2019-03-27T13:09:42.543Z,13.22
2019-03-27T13:12:14.344Z,13.29
2019-03-27T13:14:46.281Z,13.28
2019-03-27T13:17:18.118Z,13.33
2019-03-27T13:19:50.117Z,13.31
2019-03-27T13:22:22.300Z,13.39
2019-03-27T13:24:54.167Z,13.44
2019-03-27T13:27:26.159Z,13.43
2019-03-27T13:29:58.923Z,13.34
2019-03-27T13:32:30.745Z,13.31
2019-03-27T13:35:03.127Z,13.36
2019-03-27T13:37:35.351Z,13.35
2019-03-27T13:40:08.550Z,13.39
2019-03-27T13:42:40.398Z,13.42
2019-03-27T13:45:14.012Z,13.38
2019-03-27T13:47:45.852Z,13.50
2019-03-27T13:50:18.513Z,13.63
2019-03-27T13:52:50.378Z,13.66
2019-03-27T13:55:22.370Z,13.68
2019-03-27T13:57:54.351Z,13.66
2019-03-27T14:00:26.358Z,13.82
2019-03-27T14:02:58.238Z,13.84
2019-03-27T14:05:30.203Z,13.81
2019-03-27T14:08:02.060Z,13.57
2019-03-27T14:10:34.371Z,13.67
2019-03-27T14:13:06.377Z,13.79
2019-03-27T14:15:38.368Z,13.88
2019-03-27T14:18:10.859Z,13.94
2019-03-27T14:20:42.751Z,13.89
2019-03-27T14:23:14.578Z,13.91
2019-03-27T14:25:46.402Z,13.85
2019-03-27T14:28:18.340Z,13.91
2019-03-27T14:30:59.056Z,14.02
2019-03-27T14:33:30.901Z,13.85
2019-03-27T14:36:02.980Z,13.83
2019-03-27T14:38:35.224Z,13.96
2019-03-27T14:41:07.244Z,13.87
2019-03-27T14:43:39.281Z,13.95
2019-03-27T14:46:11.241Z,13.83
2019-03-27T14:48:43.341Z,14.04
2019-03-27T14:51:15.276Z,14.06
2019-03-27T14:53:47.072Z,13.97
2019-03-27T14:56:18.876Z,13.81
2019-03-27T14:58:50.766Z,13.73
2019-03-27T15:01:23.102Z,13.80
2019-03-27T15:03:55.152Z,13.75
2019-03-27T15:06:28.153Z,13.76
2019-03-27T15:09:00.280Z,13.72
2019-03-27T15:11:32.110Z,13.72
2019-03-27T15:14:04.085Z,13.69
2019-03-27T15:16:36.334Z,13.74
2019-03-27T15:19:08.395Z,13.66
2019-03-27T15:21:40.186Z,13.68
2019-03-27T15:24:12.387Z,13.64
2019-03-27T15:26:44.175Z,13.55
2019-03-27T15:29:16.246Z,13.61
2019-03-27T15:31:49.312Z,13.52
2019-03-27T15:34:21.111Z,13.62
2019-03-27T15:36:53.630Z,13.55
2019-03-27T15:39:25.427Z,13.49
2019-03-27T15:41:58.167Z,13.39
2019-03-27T15:44:29.963Z,13.53
2019-03-27T15:47:01.858Z,13.55
2019-03-27T15:49:33.760Z,13.50
2019-03-27T15:52:05.657Z,13.57
2019-03-27T15:54:37.494Z,13.55
2019-03-27T15:57:09.295Z,13.55
2019-03-27T15:59:41.640Z,13.54
2019-03-27T16:02:13.689Z,13.59
2019-03-27T16:04:45.669Z,13.65
2019-03-27T16:07:17.595Z,13.72
2019-03-27T16:09:49.449Z,13.76
2019-03-27T16:12:21.552Z,13.62
2019-03-27T16:14:54.021Z,13.66
2019-03-27T16:17:25.980Z,13.67
2019-03-27T16:19:58.243Z,13.70
2019-03-27T16:22:30.162Z,13.72
2019-03-27T16:25:01.999Z,13.61
2019-03-27T16:27:33.845Z,13.53
2019-03-27T16:30:05.854Z,13.43
2019-03-27T16:32:37.728Z,13.50
2019-03-27T16:35:10.275Z,13.55
2019-03-27T16:37:42.148Z,13.60
2019-03-27T16:40:15.551Z,13.53
2019-03-27T16:42:47.600Z,13.47
2019-03-27T16:45:20.095Z,13.36
2019-03-27T16:47:51.925Z,13.43
2019-03-27T16:50:23.943Z,13.42
2019-03-27T16:53:03.379Z,13.45
2019-03-27T16:55:30.656Z,13.43
2019-03-27T16:58:02.983Z,13.34
2019-03-27T17:00:34.999Z,13.40
2019-03-27T17:03:07.321Z,13.46
2019-03-27T17:05:53.920Z,13.43
2019-03-27T17:08:22.338Z,13.31
2019-03-27T17:10:54.923Z,13.37
2019-03-27T17:13:27.148Z,13.37
2019-03-27T17:15:59.113Z,13.35
2019-03-27T17:18:31.012Z,13.39
2019-03-27T17:21:03.366Z,13.27
2019-03-27T17:23:35.568Z,13.15
2019-03-27T17:26:07.573Z,13.23
2019-03-27T17:28:39.646Z,13.27
2019-03-27T17:31:11.592Z,13.17
2019-03-27T17:33:44.027Z,13.18
2019-03-27T17:36:15.937Z,13.18
2019-03-27T17:38:48.030Z,13.27
2019-03-27T17:41:19.926Z,13.24
2019-03-27T17:43:51.778Z,13.15
2019-03-27T17:46:24.090Z,13.09
2019-03-27T17:48:56.881Z,13.15
2019-03-27T17:51:28.656Z,13.10
2019-03-27T17:54:00.653Z,13.15
2019-03-27T17:56:32.751Z,13.17
2019-03-27T17:59:05.003Z,13.06
2019-03-27T18:01:36.878Z,13.08
2019-03-27T18:04:11.041Z,12.99
2019-03-27T18:06:43.852Z,12.98
2019-03-27T18:09:15.791Z,12.99
2019-03-27T18:11:47.639Z,13.06
2019-03-27T18:14:20.130Z,12.99
2019-03-27T18:16:51.916Z,12.88
2019-03-27T18:19:23.709Z,12.86
2019-03-27T18:22:07.195Z,12.88
2019-03-27T18:24:29.508Z,12.88
2019-03-27T18:27:01.569Z,12.93
2019-03-27T18:29:33.373Z,12.84
2019-03-27T18:32:05.559Z,12.91
2019-03-27T18:34:37.433Z,12.91
2019-03-27T18:37:09.272Z,12.76
2019-03-27T18:39:41.095Z,12.73
2019-03-27T18:42:13.351Z,12.73
2019-03-27T18:44:45.476Z,12.71
2019-03-27T18:47:17.288Z,12.72
2019-03-27T18:49:49.071Z,12.75
2019-03-27T18:52:20.959Z,12.71
2019-03-27T18:54:52.850Z,12.65
2019-03-27T18:57:24.658Z,12.59
2019-03-27T18:59:56.566Z,12.47
2019-03-27T19:02:29.280Z,12.51
2019-03-27T19:05:01.068Z,12.45
2019-03-27T19:07:33.294Z,12.49
2019-03-27T19:10:07.087Z,12.42
2019-03-27T19:12:38.903Z,12.34
2019-03-27T19:15:11.773Z,12.37
2019-03-27T19:17:43.847Z,12.41
2019-03-27T19:20:15.942Z,12.38
2019-03-27T19:22:48.041Z,12.38
2019-03-27T19:25:19.924Z,12.41
2019-03-27T19:27:51.867Z,12.27
2019-03-27T19:30:24.332Z,12.26
2019-03-27T19:32:56.606Z,12.24
2019-03-27T19:35:29.128Z,12.28
2019-03-27T19:38:01.506Z,12.23
2019-03-27T19:40:33.675Z,12.21
2019-03-27T19:43:05.572Z,12.22
2019-03-27T19:45:38.650Z,12.17
2019-03-27T19:48:10.466Z,12.17
2019-03-27T19:50:42.253Z,12.20
2019-03-27T19:53:14.077Z,12.17
2019-03-27T19:55:46.412Z,12.16
2019-03-27T19:58:18.241Z,12.14
2019-03-27T20:00:51.065Z,12.06
2019-03-27T20:03:23.087Z,12.02
2019-03-27T20:05:54.904Z,12.01
2019-03-27T20:08:26.895Z,12.02
2019-03-27T20:10:59.091Z,11.98
2019-03-27T20:13:31.180Z,11.98
2019-03-27T20:16:03.050Z,12.01
2019-03-27T20:18:35.309Z,11.97
2019-03-27T20:21:07.252Z,11.88
2019-03-27T20:23:39.139Z,11.83
2019-03-27T20:26:10.911Z,11.83
2019-03-27T20:28:43.855Z,11.81
2019-03-27T20:31:15.639Z,11.68
2019-03-27T20:33:47.488Z,11.74
2019-03-27T20:36:19.577Z,11.69
2019-03-27T20:38:51.431Z,11.63
2019-03-27T20:41:23.279Z,11.61
2019-03-27T20:43:55.444Z,11.57
2019-03-27T20:46:29.241Z,11.49
2019-03-27T20:49:00.788Z,11.43
2019-03-27T20:51:32.579Z,11.41
2019-03-27T20:54:04.495Z,11.37
2019-03-27T20:56:36.339Z,11.30
2019-03-27T20:59:08.162Z,11.31
2019-03-27T21:01:40.352Z,11.27
2019-03-27T21:04:12.795Z,11.16
2019-03-27T21:06:44.574Z,11.05
2019-03-27T21:09:16.372Z,11.05
2019-03-27T21:11:48.236Z,10.96
2019-03-27T21:14:20.142Z,10.95
2019-03-27T21:16:51.913Z,10.94
2019-03-27T21:19:24.241Z,10.70
2019-03-27T21:21:56.206Z,10.63
2019-03-27T21:24:28.018Z,10.51
2019-03-27T21:27:00.190Z,10.39
2019-03-27T21:29:32.032Z,10.42
2019-03-27T21:32:03.822Z,10.45
2019-03-27T21:34:35.717Z,10.48
2019-03-27T21:37:07.565Z,10.47
2019-03-27T21:39:39.433Z,10.42
2019-03-27T21:42:11.356Z,10.30
2019-03-27T21:44:43.160Z,10.22
2019-03-27T21:47:15.007Z,10.35
2019-03-27T21:49:46.834Z,10.19
2019-03-27T21:52:18.916Z,10.06
2019-03-27T21:54:50.710Z,9.94
2019-03-27T21:57:22.478Z,9.88
2019-03-27T21:59:54.565Z,9.77
2019-03-27T22:02:26.417Z,9.74
2019-03-27T22:04:58.303Z,9.82
2019-03-27T22:07:30.179Z,9.76
2019-03-27T22:10:01.988Z,9.79
2019-03-27T22:12:33.840Z,9.81
2019-03-27T22:15:07.253Z,9.75
2019-03-27T22:17:39.299Z,9.61
2019-03-27T22:20:11.282Z,9.53
2019-03-27T22:22:43.165Z,9.56
2019-03-27T22:25:15.117Z,9.44
2019-03-27T22:27:46.949Z,9.53
2019-03-27T22:30:19.061Z,9.37
2019-03-27T22:32:50.907Z,9.38
2019-03-27T22:35:22.805Z,9.30
2019-03-27T22:37:54.585Z,9.35
2019-03-27T22:40:26.402Z,9.31
2019-03-27T22:42:58.840Z,9.14
2019-03-27T22:45:30.873Z,9.09
2019-03-27T22:48:02.682Z,9.08
2019-03-27T22:50:34.554Z,8.73
2019-03-27T22:53:06.712Z,8.70
2019-03-27T22:55:49.059Z,8.71
2019-03-27T22:58:13.123Z,8.75
2019-03-27T23:00:48.710Z,8.76
2019-03-27T23:03:20.656Z,8.70
2019-03-27T23:05:52.784Z,8.73
2019-03-27T23:08:24.556Z,8.80
2019-03-27T23:10:56.447Z,8.72
2019-03-27T23:13:28.902Z,8.68
2019-03-27T23:16:00.813Z,8.70
2019-03-27T23:18:32.897Z,8.76
2019-03-27T23:21:04.876Z,8.76
2019-03-27T23:23:36.650Z,8.77
2019-03-27T23:26:08.576Z,8.64
2019-03-27T23:28:40.373Z,8.69
2019-03-27T23:31:13.312Z,8.71
2019-03-27T23:33:45.248Z,8.68
2019-03-27T23:36:17.247Z,8.61
2019-03-27T23:38:49.438Z,8.49
2019-03-27T23:41:28.033Z,8.47
2019-03-27T23:44:01.058Z,8.49
2019-03-27T23:46:32.837Z,8.43
2019-03-27T23:49:05.147Z,8.39
2019-03-27T23:51:36.945Z,8.34
2019-03-27T23:54:08.720Z,8.33
2019-03-27T23:56:40.871Z,8.21
2019-03-27T23:59:12.727Z,8.19
